Time;durP1;ratioP1;P1;durP2;ratioP2;P2;SDS_P1;SDS_P2;PMS_P1;PMS_P2;Temp;Humidity;BMP_temperature;BMP_pressure;BME280_temperature;BME280_humidity;BME280_pressure;Samples;Min_cycle;Max_cycle;Signal;HPM_P1;HPM_P2
2021/07/19 00:00:36;;;;;;;16.10;2.78;;;14.50;99.90;;;13.16;90.23;101798.88;5023374;28;20128;-72
2021/07/19 00:03:02;;;;;;;13.90;2.58;;;14.30;99.90;;;12.90;91.04;101791.06;5042140;28;20408;-71
2021/07/19 00:05:28;;;;;;;11.48;2.50;;;14.10;99.90;;;12.71;92.02;101768.91;5025104;28;20086;-71
2021/07/19 00:07:56;;;;;;;14.20;3.47;;;13.90;99.90;;;12.51;92.33;101783.75;5038346;28;20064;-71
2021/07/19 00:10:23;;;;;;;8.52;2.60;;;13.80;99.90;;;12.45;93.02;101777.84;5041540;28;20021;-71
2021/07/19 00:12:50;;;;;;;23.35;3.47;;;13.70;99.90;;;12.40;93.05;101795.66;5039430;28;20068;-72
2021/07/19 00:15:24;;;;;;;12.80;2.67;;;13.60;99.90;;;12.34;93.22;101807.28;5024253;28;20071;-71
2021/07/19 00:17:53;;;;;;;12.02;2.95;;;13.60;99.90;;;12.30;93.42;101801.25;5036879;28;20193;-72
2021/07/19 00:20:20;;;;;;;9.82;2.30;;;13.50;99.90;;;12.16;94.01;101800.03;5039929;28;20072;-72
2021/07/19 00:22:47;;;;;;;11.95;2.70;;;13.30;99.90;;;12.04;94.37;101820.66;5029398;28;20396;-71
2021/07/19 00:25:17;;;;;;;17.95;2.70;;;13.30;99.90;;;12.04;94.35;101782.84;5026616;28;20078;-72
2021/07/19 00:27:45;;;;;;;17.17;3.92;;;13.30;99.90;;;11.98;93.63;101831.44;5020822;28;20061;-72
2021/07/19 00:30:16;;;;;;;13.80;2.90;;;13.20;99.90;;;11.96;93.71;101783.13;5040496;28;20081;-71
2021/07/19 00:32:44;;;;;;;11.07;2.45;;;13.20;99.90;;;11.94;93.53;101781.44;5022169;28;20481;-72
2021/07/19 00:35:11;;;;;;;22.08;2.95;;;13.20;99.90;;;11.89;94.38;101782.47;5040916;28;20061;-72
2021/07/19 00:37:37;;;;;;;7.80;2.55;;;13.10;99.90;;;11.88;94.92;101779.91;5021290;28;20466;-72
2021/07/19 00:40:14;;;;;;;8.43;2.58;;;13.10;99.90;;;11.82;95.43;101782.72;5007068;28;20079;-71
2021/07/19 00:42:44;;;;;;;8.85;2.50;;;13.00;99.90;;;11.61;94.59;101768.50;5037801;28;20070;-72
2021/07/19 00:45:19;;;;;;;8.93;2.50;;;12.80;99.90;;;11.41;94.25;101770.03;5040201;28;20083;-71
2021/07/19 00:47:49;;;;;;;5.93;2.17;;;12.70;99.90;;;11.37;95.08;101775.47;5030871;28;20153;-72
2021/07/19 00:50:15;;;;;;;9.77;2.50;;;12.60;99.90;;;11.27;95.36;101778.41;5032208;28;20433;-71
2021/07/19 00:52:41;;;;;;;8.52;2.25;;;12.60;99.90;;;11.28;96.39;101785.41;5046502;28;20168;-71
2021/07/19 00:55:11;;;;;;;11.98;2.83;;;12.60;99.90;;;11.24;96.17;101812.75;5038236;28;20512;-72
2021/07/19 00:57:41;;;;;;;8.82;2.53;;;12.60;99.90;;;11.25;96.49;103386.16;5042424;28;20091;-71
2021/07/19 01:00:12;;;;;;;8.13;2.42;;;12.50;99.90;;;11.12;96.05;102661.16;5036241;28;20161;-71
2021/07/19 01:02:42;;;;;;;9.45;2.17;;;12.40;99.90;;;11.09;97.04;102519.72;5021084;28;20480;-72
2021/07/19 01:05:10;;;;;;;12.52;2.95;;;12.40;99.90;;;11.06;97.13;102528.56;5028040;28;20393;-72
2021/07/19 01:07:39;;;;;;;9.98;2.60;;;12.30;99.90;;;10.98;97.23;102464.56;5036148;28;20064;-72
2021/07/19 01:10:19;;;;;;;12.57;2.53;;;12.30;99.90;;;10.91;97.48;102447.16;5040419;28;20070;-71
2021/07/19 01:12:51;;;;;;;10.57;2.40;;;12.20;99.90;;;10.84;98.19;102661.63;5023313;28;20087;-71
2021/07/19 01:15:19;;;;;;;12.50;2.45;;;12.20;99.90;;;10.79;98.75;102582.66;5030031;28;20059;-72
2021/07/19 01:17:45;;;;;;;9.85;2.65;;;12.10;99.90;;;10.76;99.16;102472.06;5031568;28;20635;-71
2021/07/19 01:20:11;;;;;;;15.82;2.92;;;12.00;99.90;;;10.73;100.00;102466.81;5038757;28;20075;-71
2021/07/19 01:23:08;;;;;;;6.45;2.35;;;12.00;99.90;;;10.66;99.91;102467.84;5039244;28;20942;-71
2021/07/19 01:26:21;;;;;;;11.48;2.63;;;12.00;99.90;;;10.74;100.00;102476.47;5035514;28;20076;-71
2021/07/19 01:28:51;;;;;;;13.32;2.95;;;12.00;99.90;;;10.75;99.63;102432.56;5008215;28;20068;-72
2021/07/19 01:31:18;;;;;;;8.68;2.80;;;12.10;99.90;;;10.76;100.00;102431.66;5003536;28;20366;-71
2021/07/19 01:33:51;;;;;;;8.00;2.80;;;12.10;99.90;;;10.79;100.00;102434.22;5049488;28;20136;-71
2021/07/19 01:36:24;;;;;;;10.65;2.92;;;12.10;99.90;;;10.80;100.00;102412.28;5052481;28;20575;-71
2021/07/19 01:38:51;;;;;;;10.52;2.83;;;12.10;99.90;;;10.77;100.00;102407.03;5019580;28;20064;-72
2021/07/19 01:41:20;;;;;;;10.35;3.00;;;12.10;99.90;;;10.75;100.00;102417.59;5032153;28;20405;-72
2021/07/19 01:43:50;;;;;;;11.68;2.50;;;12.00;99.90;;;10.72;100.00;102407.13;5021029;28;20127;-72
2021/07/19 01:46:17;;;;;;;14.80;3.40;;;12.00;99.90;;;10.63;100.00;102457.38;5029997;28;20077;-72
2021/07/19 01:48:45;;;;;;;13.02;3.08;;;11.90;99.90;;;10.58;100.00;102457.47;5036730;28;20098;-71
2021/07/19 01:51:12;;;;;;;11.30;2.75;;;12.00;99.90;;;10.64;100.00;102396.75;5036326;28;20538;-71
2021/07/19 01:53:41;;;;;;;11.65;2.80;;;11.90;99.90;;;10.62;100.00;102366.94;5020755;28;20118;-72
2021/07/19 01:56:09;;;;;;;14.18;2.95;;;12.00;99.90;;;10.65;100.00;102348.44;5039857;28;20144;-71
2021/07/19 01:58:36;;;;;;;12.13;3.10;;;12.00;99.90;;;10.60;100.00;102405.59;5021388;28;20139;-72
2021/07/19 02:01:08;;;;;;;12.20;3.53;;;12.00;99.90;;;10.64;100.00;102354.59;5029564;28;20064;-72
2021/07/19 02:03:34;;;;;;;8.85;2.50;;;12.00;99.90;;;10.65;100.00;102334.41;5037298;28;20064;-71
2021/07/19 02:06:03;;;;;;;13.48;3.20;;;11.90;99.90;;;10.63;100.00;102333.56;5022003;28;20077;-72
2021/07/19 02:08:31;;;;;;;13.82;3.38;;;11.90;99.90;;;10.61;100.00;102338.00;5019019;28;20057;-72
2021/07/19 02:10:57;;;;;;;11.35;2.63;;;11.90;99.90;;;10.62;100.00;102345.00;5038792;28;20065;-71
2021/07/19 02:13:27;;;;;;;5.68;2.72;;;11.90;99.90;;;10.59;100.00;102316.97;5035410;28;20057;-71
2021/07/19 02:15:57;;;;;;;8.95;3.00;;;11.90;99.90;;;10.58;100.00;102306.44;5028729;28;20089;-72
2021/07/19 02:18:26;;;;;;;8.85;2.95;;;12.00;99.90;;;10.64;100.00;102335.28;5028239;28;20061;-71
2021/07/19 02:22:19;;;;;;;12.25;3.10;;;11.90;99.90;;;10.67;100.00;102324.72;5028219;27;20429;-72
2021/07/19 02:24:48;;;;;;;10.45;2.92;;;12.00;99.90;;;10.67;100.00;102324.72;5006925;28;20051;-72
2021/07/19 02:27:17;;;;;;;11.27;3.13;;;11.90;99.90;;;10.61;100.00;102407.34;4990754;28;20507;-73
2021/07/19 02:29:44;;;;;;;9.95;3.13;;;12.00;99.90;;;10.68;100.00;102477.47;5021140;28;20155;-73
2021/07/19 02:32:13;;;;;;;9.25;3.33;;;12.00;99.90;;;10.82;100.00;102859.31;4992241;28;20767;-72
2021/07/19 02:34:39;;;;;;;9.00;3.05;;;12.20;99.90;;;10.93;100.00;102718.56;5008780;28;20388;-73
2021/07/19 02:37:07;;;;;;;14.23;3.28;;;12.30;99.90;;;11.06;100.00;102630.50;5007867;28;20117;-73
2021/07/19 02:39:35;;;;;;;14.80;3.38;;;12.40;99.90;;;11.13;100.00;102618.09;5012096;28;20400;-73
2021/07/19 02:42:03;;;;;;;13.48;3.53;;;12.50;99.90;;;11.24;99.95;102616.97;5011595;28;20078;-73
2021/07/19 02:44:31;;;;;;;9.40;3.60;;;12.50;99.90;;;11.31;99.99;102607.16;5025704;28;20150;-73
2021/07/19 02:46:57;;;;;;;15.40;3.95;;;12.60;99.90;;;11.38;99.95;102600.00;5027330;28;20152;-73
2021/07/19 02:49:24;;;;;;;16.83;3.35;;;12.70;99.90;;;11.46;98.53;102600.72;5008099;28;20063;-73
2021/07/19 02:51:53;;;;;;;11.98;3.78;;;12.70;99.90;;;11.54;98.81;102598.78;5039352;28;20444;-72
2021/07/19 02:54:22;;;;;;;10.05;3.60;;;12.80;99.90;;;11.62;98.59;102588.06;5029736;28;20148;-72
2021/07/19 02:56:48;;;;;;;11.43;4.00;;;13.00;99.90;;;11.68;98.72;102575.63;5026915;28;21929;-72
2021/07/19 02:59:15;;;;;;;10.93;3.38;;;13.00;99.90;;;11.74;98.34;102565.84;5022865;28;20059;-73
2021/07/19 03:01:43;;;;;;;10.57;4.60;;;13.10;99.90;;;11.82;98.24;102567.41;5027188;28;20081;-73
2021/07/19 03:04:09;;;;;;;13.80;4.85;;;13.10;99.90;;;11.88;96.59;102559.38;5026660;28;20100;-73
2021/07/19 03:06:37;;;;;;;11.60;4.47;;;13.20;99.90;;;11.93;96.84;102517.03;5024317;28;20060;-72
2021/07/19 03:09:06;;;;;;;15.30;4.75;;;13.20;99.90;;;11.98;95.81;102512.50;5030845;28;20061;-73
2021/07/19 03:11:45;;;;;;;12.27;4.38;;;13.30;99.90;;;12.06;95.30;102514.97;5033827;28;20093;-73
2021/07/19 03:14:23;;;;;;;10.00;4.07;;;13.30;99.90;;;12.09;94.83;102484.09;5040882;28;20469;-73
2021/07/19 03:16:52;;;;;;;12.27;4.55;;;13.40;99.90;;;12.13;95.03;102478.72;5005076;28;20075;-73
2021/07/19 03:19:20;;;;;;;13.05;5.00;;;13.40;99.90;;;12.15;95.16;102477.78;5005205;28;20261;-72
2021/07/19 03:21:50;;;;;;;12.95;4.68;;;13.40;99.90;;;12.14;96.22;102470.75;5007510;28;20492;-73
2021/07/19 03:24:18;;;;;;;15.88;5.00;;;13.40;99.90;;;12.16;96.06;102489.19;5005802;28;20478;-73
2021/07/19 03:26:45;;;;;;;15.30;5.30;;;13.40;99.90;;;12.20;95.79;102467.97;4999781;28;20639;-72
2021/07/19 03:29:12;;;;;;;20.48;6.15;;;13.40;99.90;;;12.24;94.76;102468.75;5009170;28;20137;-73
2021/07/19 03:31:41;;;;;;;12.98;4.90;;;13.50;99.90;;;12.31;94.57;102492.31;5006329;28;20066;-73
2021/07/19 03:34:10;;;;;;;17.02;5.63;;;13.60;99.90;;;12.36;94.79;102486.06;5020039;28;20056;-72
2021/07/19 03:36:37;;;;;;;17.20;6.00;;;13.60;99.90;;;12.35;94.86;102474.59;5014479;28;20148;-72
2021/07/19 03:39:06;;;;;;;19.98;6.07;;;13.60;99.90;;;12.36;95.38;102488.69;5012113;28;20060;-72
2021/07/19 03:41:33;;;;;;;14.27;6.30;;;13.60;99.90;;;12.37;96.23;102540.63;5025960;28;20142;-72
2021/07/19 03:44:01;;;;;;;13.00;5.82;;;13.60;99.90;;;12.38;95.66;102495.69;5013319;28;20123;-73
2021/07/19 03:46:28;;;;;;;11.70;5.78;;;13.60;99.90;;;12.43;95.60;102479.69;5011592;28;20057;-73
2021/07/19 03:48:55;;;;;;;14.32;6.60;;;13.70;99.90;;;12.52;96.17;102541.06;5010773;28;20058;-73
2021/07/19 03:51:23;;;;;;;15.45;5.78;;;13.80;99.90;;;12.61;95.99;102517.97;5011309;28;20108;-73
2021/07/19 03:53:49;;;;;;;19.50;5.72;;;13.90;99.90;;;12.63;94.45;102510.88;5013493;28;20147;-73
2021/07/19 03:56:17;;;;;;;18.77;5.20;;;13.90;99.90;;;12.64;95.39;102509.97;5011878;28;20179;-73
2021/07/19 03:58:44;;;;;;;18.15;6.70;;;13.90;99.90;;;12.66;94.63;102550.44;5009984;28;20066;-73
2021/07/19 04:01:11;;;;;;;20.58;5.95;;;13.90;99.90;;;12.71;94.57;102545.91;4992690;28;22953;-73
2021/07/19 04:03:47;;;;;;;14.60;5.25;;;14.00;99.90;;;12.72;93.70;102534.41;4994495;28;20526;-73
2021/07/19 04:06:22;;;;;;;13.10;4.47;;;14.00;99.90;;;12.77;93.71;102534.31;5012468;28;20117;-73
2021/07/19 04:08:50;;;;;;;19.27;6.23;;;14.00;99.90;;;12.81;92.54;102534.19;5033983;28;20653;-72
2021/07/19 04:11:20;;;;;;;14.77;5.70;;;14.10;99.90;;;12.83;92.33;102526.19;5012597;28;20276;-73
2021/07/19 04:13:47;;;;;;;12.07;5.40;;;14.10;99.90;;;12.85;92.96;102533.19;5020484;28;20093;-73
2021/07/19 04:16:19;;;;;;;10.90;5.20;;;14.10;99.90;;;12.87;93.10;102519.91;5011478;28;20550;-73
2021/07/19 04:18:47;;;;;;;15.68;6.40;;;14.10;99.90;;;12.88;93.75;102516.38;5010746;28;20513;-73
2021/07/19 04:21:14;;;;;;;17.48;7.20;;;14.20;99.90;;;12.91;93.62;102511.88;4993608;28;20155;-72
2021/07/19 04:23:42;;;;;;;15.77;6.55;;;14.20;99.90;;;12.94;93.33;102505.63;5011586;28;20076;-73
2021/07/19 04:26:12;;;;;;;18.38;7.40;;;14.30;99.90;;;13.03;92.54;102523.88;5008494;28;20139;-73
2021/07/19 04:28:41;;;;;;;15.88;7.20;;;14.30;99.90;;;13.10;92.32;102524.56;5019129;28;20051;-72
2021/07/19 04:31:07;;;;;;;16.38;7.45;;;14.40;99.90;;;13.14;91.98;102526.22;4995242;28;20143;-73
2021/07/19 04:33:33;;;;;;;14.23;6.47;;;14.40;99.90;;;13.17;92.02;102528.75;5001343;28;20112;-73
2021/07/19 04:35:59;;;;;;;16.85;6.97;;;14.50;99.90;;;13.21;92.25;102506.59;5009787;28;20084;-73
2021/07/19 04:38:25;;;;;;;14.45;6.47;;;14.50;99.90;;;13.26;91.18;102499.41;5009460;28;20060;-73
2021/07/19 04:40:58;;;;;;;15.60;6.72;;;14.60;99.90;;;13.36;90.58;102507.94;5026389;28;20084;-72
2021/07/19 04:43:27;;;;;;;16.95;6.43;;;14.70;99.90;;;13.44;90.40;102519.19;5009292;28;20116;-72
2021/07/19 04:45:53;;;;;;;18.83;6.75;;;14.70;99.90;;;13.45;89.83;102514.75;5010164;28;20401;-72
2021/07/19 04:48:19;;;;;;;16.38;6.03;;;14.70;99.90;;;13.48;89.64;102504.09;5001631;28;20396;-73
2021/07/19 04:50:47;;;;;;;12.70;5.88;;;14.70;99.90;;;13.56;90.51;102511.78;5008734;28;20073;-74
2021/07/19 04:53:14;;;;;;;14.25;5.90;;;14.80;99.90;;;13.64;90.33;102512.41;4991822;28;20034;-73
2021/07/19 04:55:51;;;;;;;14.80;5.88;;;14.90;99.90;;;13.70;91.11;102568.69;4994762;28;20500;-73
2021/07/19 04:58:23;;;;;;;16.40;6.35;;;15.00;99.90;;;13.73;91.62;102563.28;4991977;28;20428;-73
2021/07/19 05:00:55;;;;;;;14.82;6.65;;;15.10;99.90;;;13.80;92.30;102563.09;5018385;28;20077;-72
2021/07/19 05:03:29;;;;;;;18.60;6.45;;;15.10;99.90;;;13.82;92.86;102543.63;5021978;28;20060;-73
2021/07/19 05:05:57;;;;;;;10.75;6.00;;;15.10;99.90;;;13.84;91.53;102528.53;5017869;28;20081;-73
2021/07/19 05:08:25;;;;;;;14.20;5.90;;;15.20;99.90;;;13.89;90.98;102529.25;4990583;28;20847;-73
2021/07/19 05:10:53;;;;;;;14.60;5.63;;;15.20;99.90;;;13.93;91.22;102519.41;4982507;28;20732;-72
2021/07/19 05:13:20;;;;;;;17.48;6.25;;;15.30;99.90;;;13.99;91.28;102521.88;4982755;28;20595;-72
2021/07/19 05:15:47;;;;;;;13.60;6.18;;;15.30;99.90;;;14.03;90.41;102530.59;4976507;28;20107;-73
2021/07/19 05:18:17;;;;;;;13.95;5.85;;;15.30;99.90;;;14.08;90.72;102526.91;5003865;28;20087;-73
2021/07/19 05:20:45;;;;;;;17.40;6.85;;;15.40;99.90;;;14.12;89.61;102525.00;4990557;28;20475;-73
2021/07/19 05:23:11;;;;;;;19.65;7.35;;;15.40;99.90;;;14.15;89.16;102524.91;4991383;28;20081;-73
2021/07/19 05:25:38;;;;;;;19.80;7.03;;;15.40;99.90;;;14.21;89.21;102543.25;4972191;28;20424;-73
2021/07/19 05:28:09;;;;;;;15.18;6.50;;;15.40;99.90;;;14.19;89.17;102528.31;4992005;28;20049;-73
2021/07/19 05:30:42;;;;;;;14.70;7.07;;;15.40;99.90;;;14.20;88.98;102530.06;4988102;28;20031;-73
2021/07/19 05:33:08;;;;;;;17.65;6.45;;;15.40;99.90;;;14.13;89.86;102503.75;4989763;28;20515;-72
2021/07/19 05:35:36;;;;;;;14.82;6.70;;;15.40;99.90;;;14.14;89.59;102508.13;4992109;28;20427;-73
2021/07/19 05:38:03;;;;;;;16.10;7.47;;;15.40;99.90;;;14.13;89.37;102510.84;4991694;28;20516;-73
2021/07/19 05:40:31;;;;;;;16.08;6.50;;;15.40;99.90;;;14.23;88.70;102506.94;4988675;28;20038;-73
2021/07/19 05:42:59;;;;;;;15.25;6.78;;;15.60;99.90;;;14.45;88.25;102530.97;4990588;28;20030;-73
2021/07/19 05:45:26;;;;;;;13.02;5.93;;;15.70;99.90;;;14.43;87.22;102519.53;4982043;28;20100;-73
2021/07/19 05:47:52;;;;;;;19.13;6.97;;;15.70;99.90;;;14.46;87.72;102513.28;4990127;28;20052;-73
2021/07/19 05:50:18;;;;;;;12.15;6.28;;;15.70;99.90;;;14.51;88.12;102536.06;4991558;28;20056;-73
2021/07/19 05:52:44;;;;;;;19.17;6.90;;;15.80;99.90;;;14.54;87.93;102517.38;5007541;28;20022;-73
2021/07/19 05:55:11;;;;;;;17.38;6.07;;;15.70;99.90;;;14.52;87.03;102510.41;4994577;28;20506;-73
2021/07/19 05:57:37;;;;;;;16.70;6.07;;;15.70;99.90;;;14.46;86.92;102503.53;4991982;28;20110;-73
2021/07/19 06:00:15;;;;;;;15.02;6.53;;;15.70;99.90;;;14.47;87.37;102502.63;4990623;28;20048;-73
2021/07/19 06:02:43;;;;;;;13.55;5.95;;;15.70;99.90;;;14.50;86.94;102499.00;5031940;28;20423;-73
2021/07/19 06:05:12;;;;;;;14.68;6.03;;;15.70;99.90;;;14.50;86.16;102436.25;5012356;28;20628;-73
2021/07/19 06:07:39;;;;;;;12.85;5.78;;;15.70;99.90;;;14.56;86.47;102510.28;4990605;28;20096;-73
2021/07/19 06:10:09;;;;;;;13.43;6.13;;;15.80;99.90;;;14.62;86.77;102534.81;4990611;28;20052;-73
2021/07/19 06:12:35;;;;;;;12.63;5.95;;;15.80;99.90;;;14.68;85.24;102537.28;4987922;28;20030;-73
2021/07/19 06:15:04;;;;;;;14.85;6.45;;;15.90;99.90;;;14.72;86.04;102525.63;4990123;28;20056;-72
2021/07/19 06:17:33;;;;;;;12.55;5.82;;;15.90;99.90;;;14.74;86.09;102522.00;4980960;28;20060;-72
2021/07/19 06:20:00;;;;;;;14.68;6.28;;;16.00;99.90;;;14.87;86.72;102535.69;4965504;28;20118;-73
2021/07/19 06:22:26;;;;;;;15.10;6.40;;;16.10;99.90;;;14.97;86.69;102546.84;4990945;28;20065;-72
2021/07/19 06:24:54;;;;;;;14.30;5.68;;;16.20;99.90;;;15.00;85.36;102541.44;4989499;28;20014;-73
2021/07/19 06:27:20;;;;;;;11.07;5.45;;;16.20;99.90;;;14.99;83.66;102539.72;4985908;28;20064;-73
2021/07/19 06:29:46;;;;;;;10.85;5.55;;;16.20;99.90;;;15.00;82.63;102533.47;4989782;28;20101;-72
2021/07/19 06:32:12;;;;;;;9.57;4.88;;;16.20;99.90;;;15.07;84.63;102544.72;4989541;28;20536;-72
2021/07/19 06:34:38;;;;;;;14.02;5.50;;;16.30;99.90;;;15.16;83.67;102539.97;4999943;28;20134;-73
2021/07/19 06:37:04;;;;;;;12.02;4.78;;;16.40;99.90;;;15.21;83.84;102545.09;5010034;28;20432;-73
2021/07/19 06:39:31;;;;;;;10.43;4.60;;;16.40;99.90;;;15.29;83.47;102556.28;4993701;28;20087;-73
2021/07/19 06:41:56;;;;;;;12.50;4.50;;;16.50;99.90;;;15.37;83.11;102561.28;5024147;28;20049;-73
2021/07/19 06:44:23;;;;;;;7.35;3.95;;;16.60;99.90;;;15.38;82.01;102555.94;5008230;28;20037;-72
2021/07/19 06:46:50;;;;;;;16.33;3.97;;;16.60;99.90;;;15.42;82.53;102559.34;5009333;28;20037;-72
2021/07/19 06:49:16;;;;;;;7.55;4.13;;;16.60;99.90;;;15.38;81.94;102545.31;4987296;28;20023;-73
2021/07/19 06:51:42;;;;;;;14.02;4.40;;;16.60;99.90;;;15.50;82.06;102556.38;4963220;28;20080;-73
2021/07/19 06:54:08;;;;;;;10.88;4.90;;;16.70;99.90;;;15.53;81.34;102554.50;5027140;28;20125;-73
2021/07/19 06:56:34;;;;;;;9.00;3.97;;;16.80;99.90;;;15.69;81.58;102568.03;4991169;28;20038;-73
2021/07/19 06:59:00;;;;;;;10.18;3.67;;;16.90;99.90;;;15.71;80.71;102563.56;4988979;28;20036;-73
2021/07/19 07:01:25;;;;;;;8.02;3.17;;;16.90;99.90;;;15.65;79.45;102537.19;4989436;28;20588;-72
2021/07/19 07:03:51;;;;;;;15.18;4.38;;;16.80;99.90;;;15.54;80.01;102532.31;4987160;28;20033;-72
2021/07/19 07:06:17;;;;;;;10.98;3.33;;;16.70;99.90;;;15.54;80.67;102537.63;5022277;28;20037;-73
2021/07/19 07:08:43;;;;;;;8.13;3.45;;;16.70;99.90;;;15.64;80.36;102547.91;5013204;28;20125;-72
2021/07/19 07:11:09;;;;;;;9.88;3.90;;;16.80;99.90;;;15.67;80.05;102535.34;5002463;28;20439;-73
2021/07/19 07:13:35;;;;;;;10.63;3.63;;;16.80;99.90;;;15.67;81.36;102543.31;5016386;28;20036;-72
2021/07/19 07:16:01;;;;;;;9.35;3.85;;;16.80;99.90;;;15.62;80.01;102529.38;5013651;28;21038;-72
2021/07/19 07:18:27;;;;;;;9.88;3.28;;;16.80;99.90;;;15.67;80.64;102535.34;5010205;28;20064;-72
2021/07/19 07:20:53;;;;;;;8.05;2.83;;;16.90;99.90;;;15.71;79.26;102522.84;5013876;28;20136;-72
2021/07/19 07:23:19;;;;;;;9.52;3.08;;;16.90;99.90;;;15.72;80.35;102521.94;5029979;28;20485;-72
2021/07/19 07:25:47;;;;;;;12.20;3.25;;;16.90;99.90;;;15.61;79.10;102497.56;5008005;28;20113;-73
2021/07/19 07:28:13;;;;;;;7.35;2.75;;;16.90;99.90;;;15.75;80.91;102533.31;5003299;28;20018;-73
2021/07/19 07:30:39;;;;;;;7.68;2.72;;;17.00;99.90;;;15.84;80.13;102548.00;4994869;28;20041;-73
2021/07/19 07:33:04;;;;;;;7.85;3.10;;;17.00;99.90;;;15.90;79.21;102533.63;5013879;28;20080;-72
2021/07/19 07:35:30;;;;;;;7.25;2.88;;;17.00;99.90;;;15.89;80.63;102532.75;5028144;28;20120;-72
2021/07/19 07:37:56;;;;;;;6.88;2.67;;;17.00;99.90;;;15.84;79.61;102524.09;4987449;28;20022;-72
2021/07/19 07:40:22;;;;;;;6.75;3.28;;;17.00;99.90;;;15.87;81.63;102517.78;5015111;28;20191;-73
2021/07/19 07:42:48;;;;;;;6.45;2.65;;;17.00;99.90;;;15.84;81.01;102682.63;4995294;28;20065;-73
2021/07/19 07:45:15;;;;;;;10.90;3.78;;;17.00;99.90;;;15.74;79.64;102547.53;5010438;28;20138;-73
2021/07/19 07:47:42;;;;;;;10.18;3.30;;;16.90;99.90;;;15.79;82.41;102550.00;4992824;28;20041;-73
2021/07/19 07:50:10;;;;;;;10.65;3.00;;;17.10;99.90;;;16.03;82.17;102557.91;4995059;28;20493;-73
2021/07/19 07:52:36;;;;;;;8.40;2.80;;;17.10;99.90;;;15.99;79.58;102543.88;5013811;28;20497;-73
2021/07/19 07:55:03;;;;;;;10.20;2.50;;;17.20;99.90;;;16.15;80.02;102560.91;5009815;28;20042;-73
2021/07/19 07:57:29;;;;;;;7.00;2.58;;;17.40;99.90;;;16.30;80.14;102558.56;5011495;28;20128;-73
2021/07/19 07:59:55;;;;;;;9.05;2.90;;;17.50;99.90;;;16.43;78.96;102567.72;4996039;28;20033;-73
2021/07/19 08:02:21;;;;;;;8.75;2.90;;;17.50;99.90;;;16.36;78.87;102555.63;4994631;28;20049;-72
2021/07/19 08:04:47;;;;;;;8.20;2.65;;;17.40;99.90;;;16.11;78.71;102516.81;5012251;28;20030;-73
2021/07/19 08:07:34;;;;;;;6.97;2.50;;;17.30;99.90;;;16.14;81.14;102524.63;4958227;28;20128;-73
2021/07/19 08:10:20;;;;;;;8.63;2.40;;;17.40;99.90;;;16.23;81.21;102526.03;4965267;28;20489;-74
2021/07/19 08:13:23;;;;;;;10.53;3.00;;;17.30;99.90;;;16.05;80.57;102502.91;4971150;28;20192;-73
2021/07/19 08:16:27;;;;;;;7.30;2.55;;;17.30;99.90;;;16.20;81.66;102527.03;4961733;28;20704;-72
2021/07/19 08:19:59;;;;;;;7.00;2.65;;;17.30;99.90;;;16.20;80.70;102513.75;4957788;28;20624;-72
2021/07/19 08:23:12;;;;;;;9.02;2.55;;;17.40;99.90;;;16.40;81.69;102544.81;4954696;28;20078;-72
2021/07/19 08:26:31;;;;;;;6.47;2.28;;;17.40;99.90;;;16.09;79.92;102489.44;4962273;28;20061;-73
2021/07/19 08:30:08;;;;;;;6.25;2.42;;;17.20;99.90;;;15.96;79.86;102482.88;4991511;28;20032;-72
2021/07/19 08:33:24;;;;;;;7.10;1.98;;;17.20;99.90;;;16.06;81.23;102486.88;4948069;28;20057;-73
2021/07/19 08:36:42;;;;;;;8.05;2.60;;;17.30;99.90;;;16.11;81.26;102492.00;4949279;28;20026;-73
2021/07/19 08:40:16;;;;;;;6.68;2.35;;;17.20;99.90;;;15.91;80.76;102474.25;4947662;28;20065;-72
2021/07/19 08:43:53;;;;;;;10.27;2.63;;;17.10;99.90;;;15.96;82.71;102496.16;4967648;28;20042;-73
2021/07/19 08:47:38;;;;;;;7.95;2.10;;;17.10;99.90;;;15.97;79.69;102482.81;4950994;28;20033;-73
2021/07/19 08:51:22;;;;;;;3.75;2.10;;;17.20;99.90;;;16.32;79.94;102504.38;4949393;28;20041;-72
2021/07/19 08:55:06;;;;;;;5.03;2.17;;;17.60;99.90;;;16.46;75.88;102503.81;4961107;28;20049;-73
2021/07/19 08:59:01;;;;;;;10.00;1.98;;;17.70;99.90;;;16.62;75.04;102506.66;4961177;28;20378;-73
2021/07/19 09:02:46;;;;;;;10.25;2.67;;;17.90;99.90;;;16.85;73.99;102529.63;4956793;28;20046;-73
2021/07/19 09:05:52;;;;;;;13.10;2.17;;;17.90;99.90;;;16.87;74.27;102529.53;4996906;28;20057;-73
2021/07/19 09:09:03;;;;;;;6.53;2.63;;;18.20;99.90;;;17.17;72.88;102543.25;4949531;28;20154;-72
2021/07/19 09:12:16;;;;;;;8.60;2.70;;;18.50;99.90;;;17.68;73.10;102579.06;4949963;28;20984;-73
2021/07/19 09:15:11;;;;;;;10.98;2.35;;;18.80;99.90;;;17.81;71.26;102582.88;4963460;28;20026;-72
2021/07/19 09:18:11;;;;;;;15.15;2.58;;;18.90;99.90;;;17.70;69.31;102563.00;4990507;28;20040;-72
2021/07/19 09:20:57;;;;;;;17.33;3.15;;;18.80;99.90;;;17.62;71.16;102548.28;4961557;28;20038;-72
2021/07/19 09:24:10;;;;;;;6.18;1.92;;;18.70;99.90;;;17.67;70.02;102529.41;4971983;28;20045;-73
2021/07/19 09:27:36;;;;;;;7.85;2.45;;;18.90;99.90;;;18.36;70.68;102597.16;4957404;28;20036;-72
2021/07/19 09:31:27;;;;;;;6.70;2.40;;;19.80;99.90;;;18.75;67.01;102606.75;4991062;28;20041;-72
2021/07/19 09:35:01;;;;;;;9.25;2.40;;;19.70;99.90;;;18.96;65.80;102619.03;4975403;28;20516;-72
2021/07/19 09:38:35;;;;;;;5.90;2.53;;;20.00;99.90;;;18.54;64.13;102532.19;4976633;28;20037;-73
2021/07/19 09:42:06;;;;;;;10.05;2.20;;;19.60;99.90;;;18.33;67.58;102533.31;4979018;28;20175;-72
2021/07/19 09:45:59;;;;;;;6.72;2.15;;;19.40;99.90;;;17.95;67.40;102475.66;4960928;28;20053;-73
2021/07/19 09:49:50;;;;;;;7.07;2.13;;;19.10;99.90;;;17.92;68.21;102477.59;4970291;28;20038;-73
2021/07/19 09:53:32;;;;;;;11.52;2.00;;;19.40;99.90;;;18.61;65.62;102524.75;4978953;28;20041;-73
2021/07/19 10:01:11;;;;;;;12.35;1.85;;;20.70;99.90;;;19.39;61.86;102595.34;4979778;28;20033;-72
2021/07/19 10:05:03;;;;;;;6.47;2.30;;;20.70;99.90;;;19.57;62.76;102596.19;4982187;28;20045;-72
2021/07/19 10:08:53;;;;;;;7.00;2.08;;;20.40;99.90;;;19.23;63.28;102565.97;4964528;28;20029;-72
2021/07/19 10:13:02;;;;;;;7.10;2.78;;;20.40;99.90;;;19.40;61.07;102554.34;4973092;28;20076;-72
2021/07/19 10:16:39;;;;;;;7.07;2.40;;;20.80;99.90;;;20.17;61.12;102630.28;4946924;28;20061;-72
2021/07/19 10:20:34;;;;;;;23.08;2.03;;;21.40;99.90;;;20.76;55.79;102649.19;4978729;28;20028;-72
2021/07/19 10:24:31;;;;;;;8.13;1.88;;;22.20;99.90;;;21.41;54.94;102659.56;4979071;28;20116;-73
2021/07/19 10:27:44;;;;;;;5.07;2.00;;;22.30;99.90;;;21.47;55.87;102636.88;4974539;28;20053;-73
2021/07/19 10:30:49;;;;;;;4.80;1.80;;;22.30;99.90;;;21.24;56.90;102595.41;4975791;28;20033;-73
2021/07/19 10:33:51;;;;;;;6.55;1.98;;;22.20;99.90;;;21.31;54.71;102589.56;4972951;28;20033;-72
2021/07/19 10:36:44;;;;;;;12.07;2.38;;;22.30;99.90;;;21.39;53.40;102582.88;4966588;28;20113;-72
2021/07/19 10:39:38;;;;;;;10.05;1.70;;;22.20;99.90;;;21.34;54.88;102569.78;5007020;28;20021;-72
2021/07/19 10:42:11;;;;;;;5.35;1.58;;;22.80;99.90;;;22.25;50.89;102818.84;5010714;28;20095;-73
2021/07/19 10:44:40;;;;;;;3.88;1.77;;;23.00;99.90;;;22.05;50.55;102696.66;5019176;28;20039;-73
2021/07/19 10:47:16;;;;;;;6.85;1.80;;;23.40;99.90;;;22.59;51.44;102667.22;5017590;28;20425;-73
2021/07/19 10:50:04;;;;;;;7.30;2.07;;;23.30;99.90;;;21.42;50.17;102524.59;5020938;28;20029;-73
2021/07/19 10:52:36;;;;;;;2.50;1.50;;;22.60;99.90;;;21.57;51.73;102562.97;5018723;28;20025;-72
2021/07/19 10:55:04;;;;;;;3.83;1.48;;;22.80;99.90;;;21.99;50.87;102595.16;5020063;28;20480;-73
2021/07/19 10:57:36;;;;;;;3.88;1.30;;;22.80;99.90;;;21.55;49.33;102526.50;5030266;28;20120;-73
2021/07/19 11:00:10;;;;;;;7.53;1.75;;;22.30;99.90;;;20.69;53.33;102447.06;4994142;28;20033;-73